Date,TemperatureHighF,TemperatureAvgF,TemperatureLowF,DewpointHighF,DewpointAvgF,DewpointLowF,HumidityHigh,HumidityAvg,HumidityLow,PressureMaxIn,PressureMinIn,WindSpeedMaxMPH,WindSpeedAvgMPH,GustSpeedMaxMPH,PrecipitationSumIn
2013-1-1,41.3,37.8,30.3,31.4,29.0,20.3,76,70,65,29.69,29.54,6,2,15,0.00
2013-1-2,33.5,28.4,24.9,18.9,17.1,15.6,70,63,51,29.87,29.66,7,2,14,0.00
2013-1-3,34.0,28.3,23.3,20.7,17.9,15.5,76,65,49,29.87,29.76,7,2,16,0.00
2013-1-4,38.0,34.0,30.2,24.2,22.8,20.8,69,63,57,29.79,29.67,11,4,19,0.00
2013-1-5,41.3,34.0,29.1,25.7,23.0,19.8,76,64,52,30.00,29.73,12,2,17,0.00
2013-1-6,47.4,39.0,31.8,34.0,29.9,25.4,95,71,48,29.89,29.66,5,1,13,0.02
2013-1-7,46.6,39.3,31.4,32.2,29.1,26.8,83,67,48,30.07,29.75,6,2,13,0.00
2013-1-8,48.4,36.9,28.2,34.9,30.3,24.9,90,78,59,30.08,30.01,7,1,12,0.00
2013-1-9,49.4,41.9,31.3,40.6,36.0,29.7,95,80,68,30.05,29.84,8,2,13,0.00
2013-1-10,50.0,43.4,38.5,34.9,29.3,27.0,69,58,46,30.19,29.97,9,2,16,0.00
2013-1-11,45.5,41.7,37.5,44.4,35.6,27.0,98,80,64,30.18,29.75,3,1,11,0.42
2013-1-12,51.6,45.3,42.4,47.6,44.3,42.1,99,96,86,29.83,29.75,3,0,6,0.00
2013-1-13,49.8,46.1,43.4,49.7,45.9,42.8,100,99,98,29.81,29.66,3,1,8,0.01
2013-1-14,53.4,49.5,40.7,52.7,46.4,37.0,100,90,65,29.95,29.62,6,1,10,0.23
2013-1-15,39.6,37.1,34.4,38.2,32.5,30.1,96,84,73,30.01,29.87,4,2,10,0.21
2013-1-16,36.8,34.6,32.7,36.0,33.9,31.6,99,98,95,29.84,29.47,5,2,10,0.54
2013-1-17,42.1,38.7,37.0,36.6,32.4,29.6,97,79,64,29.76,29.61,6,1,14,0.00
2013-1-18,36.3,31.0,27.7,30.9,18.6,11.5,85,62,42,30.14,29.68,15,2,16,0.00
2013-1-19,50.5,39.1,29.2,31.6,26.8,15.8,81,62,45,30.06,29.61,5,2,20,0.00
2013-1-20,54.3,42.9,30.2,32.2,25.5,11.9,74,53,29,29.72,29.41,14,4,27,0.00
2013-1-21,33.7,28.3,24.5,25.3,15.0,10.9,92,58,45,29.77,29.52,5,1,14,0.00
2013-1-22,24.2,18.2,13.0,12.6,1.9,-2.0,63,48,38,29.91,29.54,11,5,26,0.00
2013-1-23,20.2,14.2,10.1,7.8,2.1,-1.0,83,58,44,29.95,29.84,11,2,18,0.00
2013-1-24,25.0,18.6,13.8,8.8,4.0,0.0,80,54,33,30.10,29.78,7,2,19,0.00
2013-1-25,22.9,16.6,12.4,16.1,6.6,0.3,93,66,43,30.11,29.73,7,2,14,0.00
2013-1-26,27.4,19.3,12.0,14.9,11.5,9.0,93,73,51,30.05,29.72,8,1,15,0.00
2013-1-27,34.8,24.0,14.0,18.4,14.6,9.2,82,68,49,30.22,30.06,6,1,14,0.00
2013-1-28,37.4,31.6,24.7,36.6,28.2,18.2,97,88,71,30.16,29.69,8,1,14,0.01
2013-1-29,50.5,43.2,35.6,46.2,41.0,34.8,98,92,83,29.80,29.68,4,1,10,0.00
2013-1-30,66.6,54.3,42.5,60.3,52.5,42.2,100,94,80,29.70,29.04,10,2,23,0.22
2013-1-31,60.4,44.6,28.9,59.2,33.0,12.5,99,66,41,29.51,28.76,20,7,31,0.61
2013-2-1,29.9,26.7,21.7,20.7,11.3,6.9,85,52,39,29.93,29.50,15,6,24,0.00
2013-2-2,29.3,23.3,17.1,23.2,11.0,5.6,92,60,41,29.97,29.70,8,3,17,0.00
2013-2-3,30.9,26.1,23.5,25.0,22.5,20.3,94,86,70,29.68,29.47,7,1,15,0.00
2013-2-4,29.6,25.4,20.5,22.9,13.9,10.9,77,62,50,29.69,29.53,12,3,22,0.00
2013-2-5,32.5,30.1,26.7,30.8,27.2,24.1,95,89,83,29.61,29.54,3,1,6,0.00
2013-2-6,39.5,32.5,27.7,31.0,25.8,18.5,97,78,54,30.01,29.58,7,1,17,0.01
2013-2-7,35.0,28.7,22.2,22.9,18.3,13.6,81,65,50,30.14,29.93,7,2,13,0.00
2013-2-8,35.3,33.7,31.4,34.5,31.7,25.3,98,93,74,29.90,29.34,7,3,16,0.16
2013-2-9,34.0,28.3,22.8,31.5,20.2,11.3,98,74,50,30.02,29.44,13,3,24,0.00
2013-2-10,41.8,28.7,17.0,23.2,14.1,10.1,76,56,32,30.14,29.96,7,1,10,0.01
2013-2-11,49.3,40.1,32.3,49.0,37.8,24.6,99,92,73,29.95,29.33,5,2,15,0.00
2013-2-12,45.9,40.2,32.7,40.7,28.7,25.5,91,64,49,29.64,29.43,11,3,24,0.01
2013-2-13,44.5,35.0,27.5,32.1,27.6,23.7,97,76,55,29.63,29.34,4,1,10,0.00
2013-2-14,46.1,37.7,31.6,34.9,31.8,29.3,98,81,56,29.68,29.38,7,1,10,0.25
2013-2-15,57.0,43.7,33.5,38.3,33.4,28.9,94,70,45,29.68,29.57,11,2,15,0.00
2013-2-16,38.3,34.4,30.2,34.4,27.5,16.8,97,77,57,29.65,29.43,7,2,16,0.04
2013-2-17,31.2,27.0,20.7,16.1,9.6,2.5,61,48,40,29.73,29.40,18,4,26,0.00
2013-2-18,32.0,22.0,17.6,15.9,7.2,4.7,61,52,42,29.96,29.74,11,4,23,0.00
2013-2-19,44.7,37.4,27.5,42.8,31.1,16.1,97,79,53,29.85,29.37,9,2,20,0.20
2013-2-20,35.7,30.0,24.4,29.2,15.7,11.0,77,55,44,29.71,29.44,13,6,25,0.00
2013-2-21,35.6,28.5,23.1,18.0,15.2,11.7,67,58,47,29.96,29.69,18,4,25,0.00
2013-2-22,36.9,30.3,21.4,31.5,22.3,15.6,89,72,61,30.05,29.90,7,2,10,0.00
2013-2-23,45.7,39.6,34.4,45.4,39.0,32.7,99,98,93,29.91,29.47,7,2,15,0.15
2013-2-24,45.5,38.1,31.8,39.4,31.6,21.9,100,79,59,29.69,29.44,8,2,21,0.00
2013-2-25,45.2,36.2,27.8,29.7,25.7,20.6,81,66,52,29.89,29.69,5,1,15,0.00
2013-2-26,44.6,36.2,27.6,36.6,30.6,24.7,96,81,64,29.91,29.46,12,4,23,0.38
2013-2-27,50.8,44.5,37.9,47.4,40.5,36.3,99,87,69,29.45,29.17,15,4,26,0.17
2013-2-28,45.8,42.4,36.3,36.9,33.1,27.9,85,70,52,29.33,29.25,8,3,15,0.00
2013-3-1,44.1,38.0,32.3,32.9,29.7,27.0,90,73,56,29.48,29.31,8,2,17,0.00
2013-3-2,40.4,35.4,31.6,26.1,24.4,21.9,73,64,53,29.48,29.39,6,2,15,0.00
2013-3-3,37.0,31.9,26.1,22.7,20.1,17.3,72,62,52,29.46,29.38,11,3,20,0.00
2013-3-4,40.2,33.7,29.0,23.1,20.5,17.9,70,59,47,29.61,29.46,15,5,24,0.00
2013-3-5,47.7,37.9,29.6,29.2,25.8,21.7,77,63,46,29.69,29.60,7,2,12,0.00
2013-3-6,40.2,37.4,34.1,36.2,33.4,28.7,93,86,76,29.60,29.41,16,5,31,0.15
2013-3-7,47.1,39.5,34.8,32.6,29.2,26.4,89,67,50,29.76,29.59,7,3,19,0.00
2013-3-8,42.4,34.8,28.6,35.1,30.1,26.8,96,84,66,29.88,29.71,7,3,19,0.19
2013-3-9,60.7,44.7,30.0,28.4,22.4,12.8,74,46,22,29.96,29.86,5,2,11,0.01
2013-3-10,58.3,43.3,30.5,37.6,30.0,17.1,90,62,37,30.02,29.91,7,2,11,0.00
2013-3-11,59.9,46.7,37.4,48.7,41.7,35.0,98,85,48,29.96,29.72,8,2,12,0.00
2013-3-12,57.2,51.8,41.7,56.0,49.1,35.3,98,91,76,29.72,29.35,9,4,24,1.02
2013-3-13,48.8,41.5,35.2,34.8,29.1,23.5,78,62,39,29.61,29.50,15,4,21,0.00
2013-3-14,40.8,35.0,28.8,22.4,17.0,13.6,64,49,34,29.66,29.58,15,5,31,0.00
2013-3-15,50.8,39.3,27.3,32.8,21.7,13.4,60,49,39,29.69,29.40,8,3,21,0.00
2013-3-16,45.8,37.0,32.5,32.8,30.3,24.0,97,78,56,29.58,29.42,6,1,10,0.03
2013-3-17,39.9,33.7,28.5,32.5,24.9,19.7,100,72,50,29.95,29.58,7,1,15,0.02
2013-3-18,39.5,33.1,28.3,34.6,24.3,13.8,97,72,53,30.02,29.57,14,4,19,0.52
2013-3-19,51.7,41.1,35.3,40.1,33.2,20.7,98,77,37,29.57,29.37,9,3,28,0.20
2013-3-20,47.0,39.2,31.6,22.3,19.5,16.9,59,46,31,29.59,29.45,12,4,24,0.00
2013-3-21,39.7,33.5,28.8,29.0,20.5,12.9,92,61,38,29.48,29.33,11,2,19,0.00
2013-3-22,40.8,33.7,26.8,22.3,20.0,14.4,71,57,44,29.59,29.44,14,4,24,0.00
2013-3-23,47.9,38.1,30.0,23.3,21.4,20.0,67,52,36,29.62,29.52,10,3,20,0.00
2013-3-24,46.0,38.3,29.4,27.2,22.0,19.4,70,53,37,29.64,29.35,5,1,12,0.00
2013-3-25,37.2,35.4,32.9,34.4,31.5,26.9,97,86,66,29.36,29.14,9,2,19,0.45
2013-3-26,50.1,41.2,33.5,36.0,32.9,27.5,98,76,42,29.57,29.30,8,2,16,0.09
2013-3-27,50.4,41.8,33.7,34.6,31.2,26.9,92,68,40,29.69,29.57,15,2,22,0.00
2013-3-28,47.9,42.1,34.3,31.7,29.7,27.2,79,62,45,29.81,29.66,8,2,16,0.00
2013-3-29,53.9,44.9,32.8,32.3,29.8,26.0,77,56,40,29.84,29.76,8,2,17,0.00
2013-3-30,57.5,46.6,32.9,33.0,28.5,24.6,82,53,28,29.86,29.75,5,1,14,0.00
2013-3-31,56.8,46.8,37.4,47.7,38.2,31.2,98,75,41,29.79,29.38,8,2,17,0.15
2013-4-1,62.2,50.0,38.9,46.4,36.9,17.2,98,64,37,29.59,29.33,12,4,28,0.00
2013-4-2,44.8,38.2,31.4,18.2,15.4,12.6,52,40,29,29.78,29.60,11,4,24,0.00
2013-4-3,46.5,38.4,30.0,18.1,15.2,12.1,51,39,28,29.97,29.77,9,3,23,0.00
2013-4-4,52.0,39.9,27.3,28.2,19.9,13.3,59,45,31,30.07,29.76,6,2,14,0.00
2013-4-5,62.6,49.5,37.1,35.6,27.9,19.9,89,49,21,29.76,29.41,8,2,21,0.00
2013-4-6,53.3,43.4,33.9,30.3,21.0,17.2,65,43,25,29.97,29.70,7,2,21,0.00
2013-4-7,63.2,50.3,39.0,45.7,37.2,29.9,78,62,45,29.96,29.66,7,3,21,0.00
2013-4-8,77.2,64.2,48.9,51.9,47.6,44.2,84,57,36,29.74,29.63,5,2,15,0.00
2013-4-9,82.9,72.1,57.8,55.3,52.1,48.1,82,53,31,29.67,29.58,9,2,19,0.00
2013-4-10,87.2,73.3,60.6,61.2,56.2,52.2,98,58,38,29.59,29.44,8,3,20,0.51
2013-4-11,65.8,59.3,48.8,62.6,55.9,45.1,100,89,74,29.62,29.45,10,3,17,0.00
2013-4-12,48.1,44.4,42.4,45.7,43.4,41.9,99,96,87,29.60,29.34,12,5,22,0.83
2013-4-13,59.7,50.0,38.9,46.0,39.9,35.6,100,72,43,29.64,29.42,8,2,16,0.00
2013-4-14,61.5,51.9,40.1,39.6,35.6,28.1,90,57,35,29.82,29.64,8,2,19,0.00
2013-4-15,58.4,51.4,45.1,45.1,38.5,32.7,76,62,52,30.01,29.83,7,3,12,0.00
2013-4-16,71.5,59.8,45.3,57.8,51.0,42.7,92,74,59,30.00,29.78,13,3,18,0.00
2013-4-17,73.7,62.3,55.5,57.0,49.5,38.8,96,67,32,29.93,29.76,5,1,11,0.00
2013-4-18,61.8,56.5,50.9,57.2,50.5,42.2,96,81,67,29.96,29.73,8,2,14,0.00
2013-4-19,77.7,66.3,54.3,66.2,61.7,51.7,97,86,64,29.73,29.30,9,4,21,0.31
2013-4-20,58.2,50.9,45.3,52.6,36.2,27.0,96,60,34,29.96,29.38,13,4,20,0.17
2013-4-21,54.2,44.9,33.4,31.2,26.2,22.3,66,49,33,30.26,29.98,7,2,15,0.00
2013-4-22,51.3,44.2,35.0,39.7,34.0,30.0,84,68,51,30.26,30.11,13,4,20,0.00
2013-4-23,50.3,45.4,41.4,43.5,39.2,34.5,91,79,71,30.10,29.81,9,2,15,0.00
2013-4-24,70.9,56.4,40.2,56.0,48.7,38.7,97,77,59,29.80,29.48,12,2,19,0.00
2013-4-25,64.0,54.2,42.9,57.2,34.2,28.0,84,49,26,29.93,29.55,10,3,25,0.00
2013-4-26,63.8,53.9,41.7,39.1,33.9,29.4,76,50,28,30.07,29.93,9,1,13,0.00
2013-4-27,69.3,57.0,43.3,37.0,33.5,30.8,67,43,27,30.10,29.94,6,1,10,0.00
2013-4-28,70.3,58.6,44.7,44.3,38.8,30.5,82,51,29,29.97,29.85,7,2,13,0.00
2013-4-29,56.7,53.7,50.9,55.8,51.6,42.7,99,93,64,29.87,29.79,5,1,10,0.53
2013-4-30,67.8,57.6,49.4,53.1,45.1,32.8,100,68,35,29.97,29.83,13,3,16,0.02
2013-5-1,67.6,55.1,39.9,44.0,38.2,32.1,86,56,28,30.12,29.98,12,2,16,0.00
2013-5-2,72.5,57.6,40.6,46.2,42.5,38.1,97,62,30,30.11,29.98,5,1,11,0.00
2013-5-3,63.9,55.3,47.5,43.8,41.3,37.4,84,62,38,30.08,29.99,9,2,15,0.00
2013-5-4,68.3,55.0,41.1,47.5,42.3,38.9,98,67,35,30.02,29.87,8,2,13,0.00
2013-5-5,63.7,51.8,40.8,44.2,41.6,39.2,95,70,46,29.94,29.85,5,2,12,0.00
2013-5-6,68.4,55.2,44.2,54.7,49.3,41.8,95,82,60,29.90,29.79,11,2,11,0.00
2013-5-7,69.8,59.5,52.1,62.2,56.3,50.9,99,90,72,29.81,29.70,6,2,12,0.19
2013-5-8,70.5,62.7,58.5,65.4,59.5,53.9,100,90,64,29.71,29.59,5,1,10,0.57
2013-5-9,70.9,61.7,55.6,58.3,56.6,55.2,99,85,60,29.64,29.57,6,1,13,0.49
2013-5-10,82.6,69.5,55.9,62.4,57.6,55.1,98,70,39,29.67,29.56,7,2,20,0.26
2013-5-11,75.7,66.0,61.8,65.7,63.1,60.4,99,91,70,29.59,29.37,8,1,15,0.52
2013-5-12,64.7,58.9,49.2,59.9,42.2,27.7,96,58,31,29.63,29.37,15,3,22,0.06
2013-5-13,55.0,48.6,40.3,35.2,31.3,24.5,82,53,32,29.78,29.64,9,2,18,0.00
2013-5-14,60.9,49.4,36.3,34.2,31.5,26.5,90,55,28,29.83,29.71,10,2,16,0.00
2013-5-28,64.5,63.5,62.4,63.3,62.9,62.1,99,98,95,29.79,29.77,2,0,5,0.28
2013-5-29,89.3,74.6,59.7,70.5,65.0,59.6,100,76,45,29.78,29.70,7,2,16,0.00
2013-5-30,92.0,81.6,67.8,69.0,66.4,63.1,94,63,40,29.82,29.74,7,2,13,0.00
2013-5-31,92.8,82.1,68.9,70.3,66.1,60.3,93,62,36,29.80,29.68,7,2,15,0.00
2013-6-1,90.7,81.1,70.3,70.4,68.0,63.6,89,66,41,29.70,29.58,10,3,16,0.00
2013-6-2,86.5,79.3,73.2,70.6,69.1,65.4,84,72,59,29.59,29.46,9,3,15,0.00
2013-6-3,78.1,71.4,65.4,70.5,68.5,63.3,100,91,72,29.54,29.47,3,1,12,0.92
2013-6-4,76.2,65.8,54.4,62.2,49.7,46.5,93,59,37,29.77,29.55,8,1,14,0.00
2013-6-5,79.0,66.1,51.2,54.5,47.8,43.2,82,54,34,29.86,29.74,4,1,9,0.00
2013-6-6,73.4,64.6,55.5,62.3,57.1,49.7,98,79,45,29.79,29.63,4,1,14,0.15
2013-6-7,66.0,63.0,60.1,65.9,62.7,59.9,100,99,97,29.63,29.26,9,2,16,3.01
2013-6-8,77.4,67.8,58.8,66.3,62.6,58.7,100,85,63,29.73,29.26,5,2,13,0.17
2013-6-9,83.3,72.1,60.3,65.8,60.9,58.2,94,70,47,29.85,29.74,6,1,13,0.00
2013-6-10,72.5,69.4,65.1,71.8,67.5,63.0,99,94,77,29.81,29.47,6,2,14,1.66
2013-6-11,80.5,73.9,66.4,70.6,66.3,61.6,100,79,62,29.45,29.35,11,3,20,0.06
2013-6-12,82.8,73.5,66.0,62.4,60.5,58.4,84,65,44,29.50,29.44,7,3,16,0.00
2013-6-13,80.4,69.7,60.5,72.0,63.4,56.2,98,81,68,29.51,29.07,4,1,14,0.56
2013-6-14,76.7,62.8,54.2,62.3,55.9,52.4,97,80,52,29.58,29.18,7,2,14,0.05
2013-6-15,80.4,69.8,57.8,61.3,56.9,54.7,92,67,43,29.70,29.59,7,2,14,0.00
2013-6-16,81.5,71.2,61.7,67.1,60.8,54.9,88,71,47,29.67,29.49,8,2,19,0.00
2013-6-17,86.0,75.3,65.3,68.5,66.2,63.5,95,75,49,29.60,29.51,7,2,14,0.00
2013-6-18,77.1,68.9,64.1,69.8,66.0,63.2,99,91,76,29.58,29.48,2,0,11,0.30
2013-6-19,79.1,68.7,58.9,63.4,56.2,49.8,99,69,37,29.82,29.53,7,1,14,0.00
2013-6-20,80.1,69.2,55.1,58.6,55.5,50.1,96,64,45,29.94,29.82,6,1,12,0.00
2013-6-21,83.1,71.9,57.5,61.7,54.7,49.6,86,57,39,29.98,29.90,5,1,10,0.00
2013-6-22,86.0,73.9,59.4,66.9,62.0,53.7,95,68,46,29.93,29.78,5,2,11,0.00
2013-6-23,85.5,75.2,63.9,74.5,68.2,62.0,95,80,59,29.86,29.72,9,1,14,0.10
2013-6-24,92.0,79.5,72.2,73.4,70.2,65.0,96,75,51,29.76,29.66,5,1,13,0.00
2013-6-25,91.2,78.2,68.6,76.4,69.2,64.7,90,75,48,29.67,29.52,5,1,17,0.06
2013-6-26,90.4,77.6,68.4,73.2,68.7,65.2,98,76,55,29.55,29.45,6,1,14,0.36
2013-6-27,89.0,77.4,70.2,73.7,71.8,69.9,99,85,56,29.49,29.24,10,1,14,1.73
2013-6-28,85.3,75.2,68.6,71.8,69.9,67.7,98,85,60,29.25,29.16,6,2,12,0.09
2013-6-29,87.8,76.9,67.6,69.8,66.4,64.0,99,73,48,29.36,29.17,4,1,12,0.00
2013-6-30,84.8,76.1,72.1,74.7,72.1,65.7,96,88,71,29.55,29.37,3,1,9,0.22
2013-7-1,78.1,74.8,71.3,74.5,72.8,70.4,98,94,86,29.68,29.54,7,2,13,0.18
2013-7-2,86.2,77.2,73.3,74.2,72.7,70.5,94,87,67,29.85,29.69,7,2,14,0.04
2013-7-3,85.7,77.3,71.7,76.6,73.0,69.5,97,87,72,29.91,29.84,5,1,12,0.33
2013-7-4,88.6,80.2,74.1,75.3,73.6,71.2,99,82,61,29.92,29.84,6,2,13,0.01
2013-7-5,90.2,83.1,73.5,75.6,73.4,72.1,96,74,56,29.88,29.78,7,2,13,0.00
2013-7-6,93.5,83.6,75.6,75.5,73.8,72.4,94,74,51,29.83,29.71,5,2,12,0.00
2013-7-7,92.1,82.6,71.6,76.1,73.2,69.6,97,75,56,29.76,29.63,10,2,29,0.12
2013-7-8,85.7,75.2,69.3,72.5,69.1,66.3,96,83,61,29.74,29.67,6,1,11,0.00
2013-7-9,87.2,78.0,70.4,75.4,71.3,67.1,94,81,62,29.74,29.66,4,1,14,0.16
2013-7-10,88.3,80.6,75.0,75.2,73.7,71.2,95,81,60,29.68,29.50,7,2,17,0.01
2013-7-11,86.3,78.6,74.1,74.9,71.1,64.3,94,79,59,29.58,29.49,5,1,9,0.01
2013-7-12,76.3,72.2,68.4,69.8,66.3,63.2,98,82,65,29.70,29.58,6,1,16,0.88
2013-7-13,89.1,76.0,68.4,78.3,72.7,68.1,100,90,63,29.95,29.71,4,1,11,0.39
2013-7-14,91.3,81.5,73.4,74.9,73.5,70.7,99,79,55,30.01,29.92,7,1,9,0.00
2013-7-15,93.6,83.9,73.4,75.8,73.5,70.2,91,73,54,29.94,29.81,5,2,10,0.00
2013-7-16,94.3,83.9,74.0,74.4,71.5,69.0,94,69,46,29.88,29.80,6,1,14,0.00
2013-7-17,95.6,85.4,73.7,73.6,71.6,68.8,93,66,43,29.86,29.74,4,0,8,0.00
2013-7-18,97.2,87.2,77.8,78.1,74.9,71.4,83,68,49,29.76,29.64,5,1,10,0.00
2013-7-19,95.7,87.9,80.8,79.8,77.8,76.2,93,73,57,29.67,29.49,8,2,14,0.00
2013-7-20,90.9,83.6,74.5,75.2,72.5,69.3,91,70,59,29.52,29.43,8,3,19,0.04
2013-7-21,89.7,78.7,73.4,75.2,71.9,69.5,93,81,57,29.60,29.52,3,1,10,0.02
2013-7-22,85.3,76.2,71.7,76.5,72.4,69.4,99,89,73,29.61,29.45,6,1,10,0.18
2013-7-23,87.4,77.0,69.4,74.4,72.0,68.8,100,86,65,29.44,29.26,4,1,14,0.75
2013-7-24,79.9,75.2,65.8,69.6,65.6,54.9,88,73,60,29.59,29.31,7,2,11,0.00
2013-7-25,70.6,65.3,60.0,60.2,57.0,53.0,82,75,68,29.70,29.59,5,1,12,0.00
2013-7-26,81.7,71.6,61.3,62.9,59.8,58.2,91,69,47,29.72,29.67,4,1,12,0.00
2013-7-27,85.4,75.0,64.5,69.2,64.7,59.2,97,72,49,29.72,29.59,5,1,12,0.00
2013-7-28,82.3,72.7,67.8,73.3,68.2,63.9,98,87,74,29.64,29.55,5,1,11,0.44
2013-7-29,82.3,73.4,65.7,68.0,62.1,52.1,99,72,36,29.79,29.61,8,2,14,0.05
2013-7-30,80.7,70.9,61.7,60.9,58.9,56.9,87,68,47,29.85,29.78,5,1,12,0.00
2013-7-31,82.2,72.7,60.5,65.7,61.8,59.1,97,71,48,29.83,29.70,5,1,9,0.00
2013-8-1,73.5,70.3,66.4,70.6,66.9,62.3,98,90,74,29.70,29.49,5,1,12,0.79
2013-8-2,83.7,75.1,67.3,69.0,66.3,61.8,100,77,48,29.60,29.48,7,2,13,0.00
2013-8-3,77.3,71.4,66.4,67.3,65.3,61.6,91,82,70,29.61,29.55,5,1,12,0.01
2013-8-4,79.4,70.7,62.6,64.8,60.2,55.6,99,72,45,29.66,29.53,5,1,18,0.00
2013-8-5,77.5,67.8,56.4,56.5,54.2,50.8,93,65,42,29.75,29.66,5,1,11,0.00
2013-8-6,78.9,68.0,56.4,65.1,59.7,54.8,96,77,50,29.78,29.70,4,1,10,0.00
2013-8-7,75.3,70.4,65.8,69.6,67.2,64.1,97,90,76,29.79,29.71,4,1,10,0.07
2013-8-8,86.0,76.7,69.1,74.8,71.8,68.2,100,86,66,29.72,29.65,6,2,14,0.17
2013-8-9,84.7,78.4,74.7,78.0,74.6,71.8,97,89,75,29.67,29.49,7,2,13,0.13
2013-8-10,83.2,76.4,70.9,73.6,67.9,64.4,99,77,54,29.71,29.56,5,1,10,0.00
2013-8-11,85.6,75.7,63.5,68.7,62.7,57.2,95,66,45,29.79,29.68,4,1,11,0.00
2013-8-12,84.8,76.0,69.3,71.4,68.8,64.4,98,80,51,29.70,29.59,4,0,8,0.00
2013-8-13,81.9,74.0,65.9,73.8,69.9,65.6,99,88,64,29.59,29.39,6,1,13,0.35
2013-8-14,73.9,66.5,57.8,68.0,54.7,47.6,88,67,49,29.72,29.44,10,2,20,0.00
2013-8-15,76.8,63.1,52.9,56.5,53.2,49.7,96,74,41,29.82,29.73,4,1,10,0.00
2013-8-16,80.4,68.0,53.7,58.1,55.0,52.4,98,67,40,29.86,29.80,3,1,9,0.00
2013-8-17,81.9,70.0,57.2,61.3,57.5,55.4,97,68,42,29.93,29.87,4,1,10,0.00
2013-8-18,74.9,67.8,62.8,64.2,61.2,56.9,94,80,58,29.92,29.81,4,0,8,0.04
2013-8-19,75.9,69.1,61.1,67.1,62.9,58.4,94,82,62,29.82,29.72,5,1,9,0.00
2013-8-20,87.3,75.2,64.1,69.5,66.2,63.5,99,77,46,29.81,29.74,3,1,9,0.00
2013-8-21,87.9,77.3,64.9,71.9,66.9,60.0,98,73,42,29.85,29.74,7,1,12,0.00
2013-8-22,82.7,76.1,71.7,73.7,71.6,69.6,97,86,69,29.74,29.57,5,1,13,0.41
2013-8-23,77.0,71.5,65.9,69.7,64.6,59.5,95,80,60,29.76,29.58,4,0,9,0.00
2013-8-24,80.2,69.8,61.0,59.6,55.8,50.7,87,64,39,30.01,29.76,5,1,11,0.00
2013-8-25,80.6,68.4,54.9,60.7,55.8,52.4,97,68,38,30.07,29.92,5,1,9,0.00
2013-8-26,84.5,73.7,63.8,68.6,62.9,57.1,83,70,54,29.92,29.61,6,2,15,0.00
2013-8-27,88.2,78.9,71.4,69.2,67.8,65.9,84,70,50,29.60,29.53,8,2,14,0.00
2013-8-28,74.4,71.9,68.7,72.7,70.6,67.5,99,96,87,29.57,29.50,1,0,8,1.18
2013-8-29,80.7,73.0,68.4,71.1,69.3,65.3,100,89,70,29.69,29.53,6,1,9,0.00
2013-8-30,81.9,74.3,66.6,72.3,68.9,64.1,94,84,72,29.70,29.54,6,2,11,0.00
2013-8-31,85.9,77.5,69.9,75.1,71.8,68.3,96,83,68,29.56,29.46,6,2,12,0.00
2013-9-1,88.8,79.9,72.8,75.0,72.6,70.8,95,80,59,29.53,29.44,4,1,10,0.00
2013-9-2,77.1,74.1,71.5,75.9,72.9,70.1,99,96,89,29.46,29.42,2,0,8,0.44
2013-9-8,81.2,73.6,61.8,66.3,57.2,47.5,68,57,52,29.74,29.53,5,2,14,0.00
2013-9-9,75.4,64.8,51.7,62.9,54.8,45.8,85,71,57,29.88,29.75,6,1,10,0.00
2013-9-10,86.5,76.5,67.8,74.6,70.3,63.4,94,82,67,29.84,29.74,6,2,13,0.00
2013-9-11,92.3,82.3,72.3,77.6,73.9,71.3,100,78,58,29.80,29.66,9,2,12,0.00
2013-9-12,86.6,76.9,69.4,75.0,71.6,68.1,97,85,66,29.67,29.39,4,1,24,0.30
2013-9-13,76.4,67.4,58.6,68.3,60.5,51.4,99,81,53,29.55,29.33,4,1,14,0.27
2013-9-14,64.3,57.0,49.2,50.8,48.4,45.7,91,74,59,29.82,29.56,5,1,13,0.00
2013-9-15,72.4,58.7,44.5,56.2,49.8,43.4,98,75,48,29.90,29.76,5,1,11,0.00
2013-9-16,70.1,62.4,56.8,60.6,56.2,51.3,96,81,59,29.90,29.71,5,1,10,0.12
2013-9-17,64.9,55.1,45.7,50.5,43.7,40.6,90,68,41,30.09,29.90,5,2,14,0.00
2013-9-18,70.9,55.8,41.7,48.8,45.5,40.6,100,72,41,30.02,29.86,4,1,9,0.00
2013-9-19,75.9,61.2,47.6,56.7,52.6,46.5,98,76,44,29.87,29.75,3,1,9,0.00
2013-9-20,78.9,65.9,51.2,61.6,57.0,50.3,99,76,48,29.76,29.64,3,0,10,0.00
2013-9-21,81.7,67.2,53.4,64.1,58.2,52.8,99,76,46,29.68,29.37,5,1,15,0.00
2013-12-6,47.2,41.9,36.6,46.1,40.9,36.0,98,96,91,30.10,29.95,3,0,8,0.59
2013-12-7,38.6,35.0,30.0,36.1,31.0,26.7,98,86,65,30.47,30.03,5,1,13,0.09
2013-12-8,30.3,27.9,26.1,29.1,23.7,19.6,96,84,69,30.54,30.29,2,0,4,0.00
2013-12-9,35.6,33.5,30.4,35.0,32.9,29.3,98,98,96,30.27,29.95,2,0,11,0.31
2013-12-10,33.1,30.4,23.0,32.6,29.5,21.2,99,96,93,30.11,29.88,3,0,7,0.00
2013-12-11,33.5,21.8,15.1,24.4,19.1,13.9,96,90,69,30.32,30.13,1,0,7,0.00
2013-12-12,28.9,22.7,18.5,20.4,15.1,8.9,93,74,50,30.34,30.15,7,1,14,0.01
2013-12-13,36.4,28.2,19.3,22.8,16.3,8.7,81,61,48,30.28,30.11,4,1,12,0.02
2013-12-14,31.3,29.1,27.3,30.5,25.6,22.5,97,87,76,30.37,29.67,3,0,6,0.00
2013-12-15,37.6,32.9,28.3,34.7,29.6,23.2,97,88,67,29.83,29.51,6,1,15,0.00
2013-12-16,31.2,26.3,20.4,24.4,15.2,11.3,79,63,46,30.18,29.82,8,1,16,0.00
2013-12-17,31.4,26.2,21.7,28.2,22.4,16.1,93,86,65,30.16,29.89,2,0,5,0.00
2013-12-18,38.7,27.7,18.8,25.2,21.5,17.1,95,79,56,30.15,29.90,5,1,13,0.02
2013-12-19,48.6,35.7,22.3,32.6,27.4,19.8,91,73,51,30.16,30.00,2,0,7,0.05
2013-12-20,53.2,44.8,35.7,43.9,35.1,31.4,88,70,51,30.05,29.93,2,0,7,0.00
2013-12-21,65.7,55.2,45.2,57.4,50.5,44.1,98,85,68,29.95,29.84,4,1,9,0.00
2013-12-22,66.5,63.2,60.5,62.8,60.1,57.4,96,90,86,29.91,29.75,9,2,17,0.19
2013-12-23,60.3,54.1,41.7,59.8,52.2,35.9,99,93,78,30.10,29.85,5,1,11,0.67
2013-12-24,40.7,34.1,26.1,34.7,23.7,14.5,79,66,55,30.33,30.08,6,2,16,0.00
2013-12-25,28.9,24.2,19.7,15.4,11.5,8.2,69,58,49,30.50,30.34,4,1,10,0.00
2013-12-29,45.2,42.3,39.3,44.6,41.5,37.9,98,97,95,29.69,29.40,3,1,9,1.17
2013-12-30,43.7,37.1,26.7,39.9,31.3,18.0,98,80,65,30.12,29.69,5,1,13,0.00
2013-12-31,35.1,28.3,22.5,28.1,18.6,13.9,80,67,57,30.27,30.02,4,1,18,0.00
2014-1-1,38.7,30.1,21.5,25.3,20.5,13.9,79,68,53,30.36,30.16,2,0,7,0.00
2014-1-2,32.0,28.4,21.0,26.9,24.5,19.3,93,86,74,30.13,29.61,1,0,6,0.00